Time;durP1;ratioP1;P1;durP2;ratioP2;P2;SDS_P1;SDS_P2;PMS_P1;PMS_P2;Temp;Humidity;BMP_temperature;BMP_pressure;BME280_temperature;BME280_humidity;BME280_pressure;Samples;Min_cycle;Max_cycle;Signal;HPM_P1;HPM_P2
2023/06/21 00:00:15;;;;;;;4.40;2.72;;;;;;;15.47;100.00;99866.22;4978561;28;20464;-79
2023/06/21 00:02:45;;;;;;;2.70;2.20;;;;;;;15.46;100.00;99863.75;4957328;28;20484;-80
2023/06/21 00:05:11;;;;;;;3.03;2.30;;;;;;;15.43;100.00;99864.13;4946999;28;20258;-79
2023/06/21 00:07:41;;;;;;;3.55;2.38;;;;;;;15.41;100.00;99867.00;4957007;28;20397;-79
2023/06/21 00:10:07;;;;;;;3.17;2.03;;;;;;;15.37;100.00;99863.88;4952316;28;20042;-79
2023/06/21 00:12:34;;;;;;;3.40;2.20;;;;;;;15.34;100.00;99871.41;4934225;28;20130;-79
2023/06/21 00:15:00;;;;;;;5.75;2.15;;;;;;;15.30;100.00;99867.50;4934642;28;20045;-79
2023/06/21 00:17:27;;;;;;;2.25;2.05;;;;;;;15.27;100.00;99867.88;4938135;28;20171;-79
2023/06/21 00:19:55;;;;;;;3.28;2.13;;;;;;;15.27;100.00;99871.38;4946159;28;20042;-79
2023/06/21 00:22:22;;;;;;;2.60;1.98;;;;;;;15.23;100.00;99878.06;4944012;28;20031;-85
2023/06/21 00:24:48;;;;;;;9.35;2.15;;;;;;;15.17;100.00;99881.47;4947275;28;20161;-84
2023/06/21 00:27:16;;;;;;;8.05;2.45;;;;;;;15.09;100.00;99875.28;4943279;28;20035;-80
2023/06/21 00:29:43;;;;;;;5.97;2.50;;;;;;;15.03;100.00;99880.53;4935257;28;20034;-79
2023/06/21 00:32:08;;;;;;;2.78;2.40;;;;;;;14.99;100.00;99880.06;4952439;28;20031;-85
2023/06/21 00:34:37;;;;;;;4.70;2.30;;;;;;;14.90;100.00;99875.88;4953742;28;20031;-85
2023/06/21 00:37:05;;;;;;;4.50;2.70;;;;;;;14.88;100.00;99882.22;4945693;28;20062;-79
2023/06/21 00:39:31;;;;;;;4.13;2.53;;;;;;;14.81;100.00;99875.97;4961538;28;21426;-79
2023/06/21 00:41:58;;;;;;;6.07;2.85;;;;;;;14.74;100.00;99880.38;4942228;28;20489;-79
2023/06/21 00:44:24;;;;;;;5.13;2.78;;;;;;;14.65;100.00;99874.34;4933521;28;20089;-80
2023/06/21 00:46:50;;;;;;;6.40;3.08;;;;;;;14.63;100.00;99876.34;4936372;28;20514;-79
2023/06/21 00:49:17;;;;;;;6.93;3.47;;;;;;;14.60;100.00;99884.69;4935662;28;20035;-79
2023/06/21 00:51:44;;;;;;;5.07;3.10;;;;;;;14.60;100.00;99890.00;4940776;28;20035;-79
2023/06/21 00:54:16;;;;;;;4.13;2.80;;;;;;;14.62;100.00;99890.66;4957311;28;20054;-79
2023/06/21 00:56:43;;;;;;;8.43;3.55;;;;;;;14.60;100.00;99893.50;4939805;28;20019;-79
2023/06/21 00:59:10;;;;;;;6.95;3.50;;;;;;;14.58;100.00;99882.22;4947529;28;20848;-80
2023/06/21 01:01:37;;;;;;;4.72;3.28;;;;;;;14.58;100.00;99887.53;4929158;28;20043;-80
2023/06/21 01:04:10;;;;;;;6.07;3.97;;;;;;;14.62;100.00;99888.81;4953258;28;20035;-86
2023/06/21 01:07:15;;;;;;;5.20;3.75;;;;;;;14.58;100.00;99892.03;4939368;28;20023;-86
2023/06/21 01:10:03;;;;;;;4.80;2.90;;;;;;;14.51;100.00;99891.94;4937808;28;20027;-80
2023/06/21 01:12:38;;;;;;;7.53;3.70;;;;;;;14.46;100.00;99894.34;4969095;28;20031;-80
2023/06/21 01:15:23;;;;;;;4.13;3.45;;;;;;;14.45;100.00;99900.63;4960832;28;20055;-80
2023/06/21 01:17:51;;;;;;;4.97;3.70;;;;;;;14.44;100.00;99906.97;4940594;28;20023;-87
2023/06/21 01:20:25;;;;;;;5.25;3.50;;;;;;;14.44;100.00;99906.97;4956508;28;20377;-87
2023/06/21 01:22:57;;;;;;;3.55;3.25;;;;;;;14.36;100.00;99913.22;4938405;28;20048;-80
2023/06/21 01:25:39;;;;;;;5.10;3.22;;;;;;;14.35;100.00;99917.69;4952341;28;20069;-80
2023/06/21 01:28:21;;;;;;;12.60;3.85;;;;;;;14.30;100.00;99912.09;4954429;28;20086;-80
2023/06/21 01:30:48;;;;;;;8.75;3.42;;;;;;;14.33;100.00;99913.56;4938731;28;20030;-80
2023/06/21 01:33:19;;;;;;;7.93;3.08;;;;;;;14.31;100.00;99919.06;4939359;28;20034;-80
2023/06/21 01:35:45;;;;;;;5.72;3.17;;;;;;;14.30;100.00;99927.25;4960877;28;20532;-78
2023/06/21 01:38:12;;;;;;;4.57;3.33;;;;;;;14.29;100.00;99925.56;4955965;28;20105;-87
2023/06/21 01:40:38;;;;;;;5.68;3.88;;;;;;;14.32;100.00;99930.50;4947113;28;20035;-88
2023/06/21 01:43:08;;;;;;;5.38;3.83;;;;;;;14.32;100.00;99926.03;4939822;28;20057;-86
2023/06/21 01:45:33;;;;;;;5.13;3.53;;;;;;;14.35;100.00;99930.19;4961350;28;20031;-88
2023/06/21 01:48:02;;;;;;;4.10;3.75;;;;;;;14.39;100.00;99926.13;4957286;28;20042;-79
2023/06/21 01:50:28;;;;;;;7.60;3.65;;;;;;;14.39;100.00;99921.66;4936663;28;20046;-78
2023/06/21 01:52:56;;;;;;;6.45;4.47;;;;;;;14.37;100.00;99925.50;4962502;28;20515;-78
2023/06/21 01:55:22;;;;;;;6.45;4.00;;;;;;;14.39;100.00;99932.28;4955804;28;20033;-79
2023/06/21 01:57:48;;;;;;;5.15;4.55;;;;;;;14.45;100.00;99933.38;4964701;28;20056;-87
2023/06/21 02:00:18;;;;;;;6.22;4.15;;;;;;;14.46;100.00;99940.34;4957766;28;20560;-88
2023/06/21 02:02:49;;;;;;;5.18;3.88;;;;;;;14.46;100.00;99935.03;4960211;28;20094;-80
2023/06/21 02:05:16;;;;;;;7.30;4.07;;;;;;;14.45;100.00;99937.88;4971649;28;20464;-80
2023/06/21 02:07:47;;;;;;;10.23;4.90;;;;;;;14.42;100.00;99938.22;4918869;28;20065;-78
2023/06/21 02:10:15;;;;;;;5.28;4.57;;;;;;;14.39;100.00;99952.72;4959453;28;20057;-80
2023/06/21 02:12:42;;;;;;;7.70;4.22;;;;;;;14.37;100.00;99952.91;4963685;28;20468;-87
2023/06/21 02:15:10;;;;;;;6.53;4.80;;;;;;;14.41;100.00;99963.19;4960898;28;20054;-88
2023/06/21 02:17:36;;;;;;;5.13;4.63;;;;;;;14.35;100.00;99956.78;4964993;28;20037;-80
2023/06/21 02:20:08;;;;;;;5.97;4.70;;;;;;;14.34;100.00;99960.41;4984446;28;20018;-80
2023/06/21 02:22:34;;;;;;;6.50;4.82;;;;;;;14.30;100.00;99959.94;4955330;28;20027;-80
2023/06/21 02:24:59;;;;;;;7.13;4.75;;;;;;;14.29;100.00;99968.09;4961351;28;20492;-80
2023/06/21 02:27:25;;;;;;;6.47;4.72;;;;;;;14.27;100.00;99965.63;4983304;28;20412;-80
2023/06/21 02:29:51;;;;;;;5.90;4.30;;;;;;;14.26;100.00;99967.47;4963215;28;20046;-81
2023/06/21 02:32:17;;;;;;;7.50;4.55;;;;;;;14.27;100.00;99969.13;4960910;28;20043;-80
2023/06/21 02:34:42;;;;;;;5.72;4.57;;;;;;;14.30;100.00;99969.78;4974205;28;20054;-79
2023/06/21 02:37:12;;;;;;;4.95;4.18;;;;;;;14.29;100.00;99968.94;4985796;28;20030;-79
2023/06/21 02:39:38;;;;;;;4.43;4.03;;;;;;;14.26;100.00;99979.94;4975301;28;20137;-79
2023/06/21 02:42:04;;;;;;;4.55;4.13;;;;;;;14.19;100.00;99976.34;4980866;28;20038;-79
2023/06/21 02:44:30;;;;;;;5.57;4.13;;;;;;;14.13;100.00;99977.88;4961820;28;20385;-81
2023/06/21 02:46:57;;;;;;;6.47;5.32;;;;;;;14.08;100.00;99974.94;5000927;28;20038;-80
2023/06/21 02:49:23;;;;;;;6.57;4.63;;;;;;;14.08;100.00;99969.63;4977952;28;20117;-80
2023/06/21 02:51:50;;;;;;;9.02;5.18;;;;;;;14.11;100.00;99979.91;4956244;28;20445;-80
2023/06/21 02:54:16;;;;;;;9.38;4.75;;;;;;;14.10;100.00;99984.38;4965147;28;20493;-79
2023/06/21 02:56:43;;;;;;;7.32;4.13;;;;;;;14.10;100.00;99973.75;4962023;28;20031;-81
2023/06/21 02:59:10;;;;;;;5.55;4.20;;;;;;;14.14;100.00;99982.22;4969526;28;20039;-80
2023/06/21 03:01:36;;;;;;;8.65;4.30;;;;;;;14.06;100.00;99984.94;4954271;28;20550;-79
2023/06/21 03:04:02;;;;;;;5.80;4.45;;;;;;;14.01;100.00;99988.13;4949214;28;20765;-80
2023/06/21 03:06:29;;;;;;;8.32;5.18;;;;;;;14.01;100.00;99978.28;4938000;28;20046;-80
2023/06/21 03:08:56;;;;;;;7.25;4.57;;;;;;;14.00;100.00;99979.31;4970617;28;20035;-81
2023/06/21 03:11:24;;;;;;;9.40;4.55;;;;;;;13.99;100.00;99984.81;4975903;28;20027;-79
2023/06/21 03:13:50;;;;;;;5.97;4.70;;;;;;;13.99;100.00;99982.16;4948182;28;20414;-79
2023/06/21 03:16:16;;;;;;;4.40;4.00;;;;;;;13.93;100.00;99982.88;4987083;28;20023;-79
2023/06/21 03:18:42;;;;;;;7.53;4.18;;;;;;;13.90;100.00;99989.38;4956163;28;20489;-80
2023/06/21 03:21:09;;;;;;;11.32;4.70;;;;;;;13.87;100.00;99985.22;4979628;28;20090;-80
2023/06/21 03:23:35;;;;;;;7.40;5.20;;;;;;;13.79;100.00;99985.31;4936906;28;20041;-79
2023/06/21 03:26:02;;;;;;;8.38;4.88;;;;;;;13.77;100.00;99989.94;4981262;28;20122;-80
2023/06/21 03:28:28;;;;;;;8.23;5.75;;;;;;;13.73;100.00;99997.44;4955628;28;20444;-80
2023/06/21 03:30:57;;;;;;;8.48;5.70;;;;;;;13.71;100.00;99990.66;4947864;28;20066;-79
2023/06/21 03:33:23;;;;;;;9.18;6.13;;;;;;;13.68;100.00;99989.16;4941375;28;20042;-79
2023/06/21 03:35:49;;;;;;;5.63;4.85;;;;;;;13.66;100.00;99990.34;4970425;28;20485;-79
2023/06/21 03:38:17;;;;;;;5.85;4.65;;;;;;;13.66;100.00;99993.00;4942555;28;20043;-79
2023/06/21 03:40:45;;;;;;;8.23;4.95;;;;;;;13.64;100.00;99994.03;4965826;28;20441;-79
2023/06/21 03:43:11;;;;;;;8.07;4.55;;;;;;;13.62;100.00;100000.50;4954003;28;20035;-79
2023/06/21 03:45:38;;;;;;;8.85;5.38;;;;;;;13.62;100.00;100003.16;4937050;28;20421;-79
2023/06/21 03:48:05;;;;;;;10.32;5.90;;;;;;;13.62;100.00;100008.47;4940552;28;20086;-79
2023/06/21 03:50:33;;;;;;;5.55;5.00;;;;;;;13.62;100.00;100003.16;4967880;28;20513;-79
2023/06/21 03:53:00;;;;;;;7.47;5.40;;;;;;;13.63;100.00;100007.47;4958898;28;20047;-79
2023/06/21 03:55:27;;;;;;;6.28;5.45;;;;;;;13.60;100.00;100008.63;4971674;28;20077;-79
2023/06/21 03:57:52;;;;;;;7.18;5.38;;;;;;;13.58;100.00;100012.47;4948421;28;20062;-78
2023/06/21 04:00:18;;;;;;;13.82;5.97;;;;;;;13.55;100.00;100015.47;4958430;28;20061;-79
2023/06/21 04:02:50;;;;;;;11.65;6.20;;;;;;;13.52;100.00;100017.47;4973320;28;20034;-79
2023/06/21 04:05:16;;;;;;;7.65;6.40;;;;;;;13.54;100.00;100022.63;4974867;28;20056;-80
2023/06/21 04:07:42;;;;;;;7.18;6.43;;;;;;;13.55;100.00;100018.13;4955178;28;21389;-79
2023/06/21 04:10:09;;;;;;;7.07;5.60;;;;;;;13.54;100.00;100024.47;4955655;28;20426;-79
2023/06/21 04:12:36;;;;;;;8.50;4.97;;;;;;;13.54;100.00;100027.13;4974180;28;20030;-79
2023/06/21 04:15:02;;;;;;;5.63;4.45;;;;;;;13.52;100.00;100024.63;4969528;28;20034;-79
2023/06/21 04:17:28;;;;;;;6.85;4.82;;;;;;;13.56;100.00;100025.94;4973557;28;20109;-79
2023/06/21 04:19:55;;;;;;;7.85;4.38;;;;;;;13.60;100.00;100032.53;4957001;28;20026;-79
2023/06/21 04:22:23;;;;;;;6.50;4.60;;;;;;;13.66;100.00;100033.69;4982389;28;20116;-78
2023/06/21 04:24:50;;;;;;;6.70;5.07;;;;;;;13.70;100.00;100037.63;4982747;28;20057;-79
2023/06/21 04:27:16;;;;;;;7.25;5.45;;;;;;;13.71;100.00;100041.13;4963530;28;20496;-81
2023/06/21 04:29:42;;;;;;;12.68;5.20;;;;;;;13.73;100.00;100047.06;4961530;28;20041;-81
2023/06/21 04:32:09;;;;;;;9.73;4.88;;;;;;;13.73;100.00;100045.25;4949861;28;20030;-80
2023/06/21 04:34:36;;;;;;;7.20;5.15;;;;;;;13.79;100.00;100040.25;4958547;28;20034;-79
2023/06/21 04:37:05;;;;;;;7.53;5.80;;;;;;;13.83;100.00;100053.00;4981688;28;20041;-85
2023/06/21 04:39:32;;;;;;;10.45;4.57;;;;;;;13.84;100.00;100053.84;4957172;28;20133;-84
2023/06/21 04:41:58;;;;;;;6.53;5.15;;;;;;;13.85;100.00;100056.31;4973199;28;20042;-80
2023/06/21 04:44:27;;;;;;;5.70;5.10;;;;;;;13.86;100.00;100057.97;4955685;28;20030;-79
2023/06/21 04:47:00;;;;;;;7.10;5.18;;;;;;;13.90;100.00;100055.78;4990669;28;20034;-79
2023/06/21 04:49:26;;;;;;;6.65;5.22;;;;;;;13.91;100.00;100062.75;4971958;28;20030;-80
2023/06/21 04:51:58;;;;;;;5.40;4.90;;;;;;;13.94;100.00;100066.88;4954973;28;20049;-79
2023/06/21 04:54:29;;;;;;;4.70;4.30;;;;;;;13.97;100.00;100056.72;4957147;28;20065;-83
2023/06/21 04:56:54;;;;;;;5.30;4.80;;;;;;;14.00;100.00;100072.31;4972095;28;20023;-80
2023/06/21 04:59:20;;;;;;;10.35;4.50;;;;;;;14.02;100.00;100072.13;4984204;28;20126;-80
2023/06/21 05:01:47;;;;;;;5.03;4.57;;;;;;;14.04;100.00;100070.13;4967038;28;20046;-80
2023/06/21 05:04:12;;;;;;;7.25;4.13;;;;;;;14.06;100.00;100070.78;4969638;28;20508;-79
2023/06/21 05:06:40;;;;;;;7.68;5.15;;;;;;;14.04;100.00;100069.31;4990144;28;20035;-80
2023/06/21 05:09:06;;;;;;;5.00;3.75;;;;;;;13.96;100.00;100076.34;4956089;28;20050;-79
2023/06/21 05:11:32;;;;;;;55.05;3.50;;;;;;;13.89;100.00;100078.84;4938501;28;20046;-81
2023/06/21 05:13:58;;;;;;;7.03;2.05;;;;;;;13.92;100.00;100080.31;4954000;28;20042;-80
2023/06/21 05:16:23;;;;;;;6.40;3.08;;;;;;;13.95;100.00;100082.63;4953377;28;20105;-80
2023/06/21 05:18:49;;;;;;;26.83;3.08;;;;;;;13.93;100.00;100079.34;4949139;28;20039;-79
2023/06/21 05:21:15;;;;;;;34.65;3.55;;;;;;;13.84;100.00;100080.41;4955409;28;20047;-80
2023/06/21 05:23:40;;;;;;;7.60;2.80;;;;;;;13.81;100.00;100084.22;4968961;28;20042;-79
2023/06/21 05:26:07;;;;;;;3.83;2.65;;;;;;;13.79;100.00;100091.56;4939240;28;21033;-80
2023/06/21 05:28:33;;;;;;;2.70;2.45;;;;;;;13.77;100.00;100094.38;4965166;28;20023;-79
2023/06/21 05:30:58;;;;;;;31.63;2.83;;;;;;;13.80;100.00;100092.34;4952759;28;20554;-80
2023/06/21 05:33:24;;;;;;;5.55;2.90;;;;;;;13.83;100.00;100095.50;4958155;28;20035;-80
2023/06/21 05:35:50;;;;;;;3.22;2.65;;;;;;;13.82;100.00;100093.03;4951959;28;20050;-80
2023/06/21 05:38:16;;;;;;;4.20;2.88;;;;;;;13.87;100.00;100102.09;4969634;28;20512;-79
2023/06/21 05:40:41;;;;;;;4.32;2.83;;;;;;;13.92;100.00;100109.56;4968350;28;20409;-81
2023/06/21 05:43:07;;;;;;;3.60;3.30;;;;;;;13.97;100.00;100101.06;4965571;28;20055;-79
2023/06/21 05:45:34;;;;;;;4.35;3.47;;;;;;;14.01;100.00;100100.53;4952083;28;20073;-79
2023/06/21 05:48:00;;;;;;;6.47;3.50;;;;;;;14.04;100.00;100104.69;4953763;28;20031;-84
2023/06/21 05:50:30;;;;;;;3.55;3.10;;;;;;;14.12;100.00;100109.97;4968688;28;20034;-82
2023/06/21 05:52:59;;;;;;;5.43;3.13;;;;;;;14.17;100.00;100109.44;4895040;28;20509;-79
2023/06/21 05:55:25;;;;;;;5.38;4.30;;;;;;;14.19;100.00;100114.56;4965683;28;20039;-78
2023/06/21 05:57:51;;;;;;;4.30;3.90;;;;;;;14.20;100.00;100106.41;4965270;28;20039;-79
2023/06/21 06:00:18;;;;;;;6.75;4.75;;;;;;;14.31;100.00;100115.81;4976595;28;20047;-80
2023/06/21 06:02:45;;;;;;;7.72;5.60;;;;;;;14.39;100.00;100118.41;4944621;28;20031;-79
2023/06/21 06:05:11;;;;;;;12.13;8.02;;;;;;;14.46;100.00;100125.69;4974782;28;20169;-79
2023/06/21 06:07:37;;;;;;;10.90;6.60;;;;;;;14.50;100.00;100125.13;4950002;28;20036;-80
2023/06/21 06:10:04;;;;;;;10.65;6.70;;;;;;;14.53;100.00;100123.94;4971909;28;20671;-80
2023/06/21 06:12:30;;;;;;;9.00;6.38;;;;;;;14.59;100.00;100125.06;4952612;28;20042;-83
2023/06/21 06:14:56;;;;;;;6.40;5.80;;;;;;;14.65;100.00;100121.69;4970418;28;20073;-83
2023/06/21 06:17:23;;;;;;;12.90;6.65;;;;;;;14.72;100.00;100122.63;4969401;28;20063;-84
2023/06/21 06:19:49;;;;;;;11.82;7.65;;;;;;;14.76;100.00;100133.75;4965319;28;20481;-85
2023/06/21 06:22:14;;;;;;;10.45;6.97;;;;;;;14.76;100.00;100129.22;4953023;28;20038;-79
2023/06/21 06:24:40;;;;;;;8.32;7.03;;;;;;;14.82;100.00;100127.72;4952736;28;20046;-80
2023/06/21 06:27:06;;;;;;;10.23;6.72;;;;;;;14.88;100.00;100132.31;4968336;28;20098;-80
2023/06/21 06:29:32;;;;;;;10.50;7.32;;;;;;;14.91;100.00;100136.44;4961674;28;20465;-79
2023/06/21 06:31:57;;;;;;;11.52;7.30;;;;;;;14.94;100.00;100141.41;4971425;28;20046;-80
2023/06/21 06:34:24;;;;;;;11.13;8.65;;;;;;;14.99;100.00;100143.53;4971454;28;20123;-80
2023/06/21 06:36:50;;;;;;;9.55;7.75;;;;;;;15.00;100.00;100138.03;4959293;28;20077;-79
2023/06/21 06:39:16;;;;;;;10.30;7.75;;;;;;;15.06;100.00;100146.31;4953166;28;20043;-79
2023/06/21 06:41:41;;;;;;;8.32;7.28;;;;;;;15.12;100.00;100143.75;4941366;28;20035;-80
2023/06/21 06:44:08;;;;;;;9.38;7.28;;;;;;;15.17;100.00;100150.34;4968828;28;20068;-79
2023/06/21 06:46:34;;;;;;;11.55;7.72;;;;;;;15.17;100.00;100153.84;4948646;28;20034;-79
2023/06/21 06:48:59;;;;;;;9.23;7.82;;;;;;;15.18;100.00;100160.81;4987957;28;20066;-87
2023/06/21 06:51:26;;;;;;;11.20;7.95;;;;;;;15.20;100.00;100160.63;4978368;28;20026;-84
2023/06/21 06:53:51;;;;;;;9.23;7.82;;;;;;;15.22;100.00;100164.78;4973169;28;20529;-80
2023/06/21 06:56:17;;;;;;;10.05;7.50;;;;;;;15.24;100.00;100161.94;4966997;28;20110;-79
2023/06/21 06:58:43;;;;;;;10.50;8.05;;;;;;;15.28;100.00;100165.03;4958725;28;20126;-84
2023/06/21 07:01:10;;;;;;;8.77;7.28;;;;;;;15.33;100.00;100158.19;4956019;28;20038;-83
2023/06/21 07:03:35;;;;;;;8.82;7.43;;;;;;;15.42;100.00;100168.72;4952687;28;20118;-80
2023/06/21 07:06:01;;;;;;;10.18;7.30;;;;;;;15.47;100.00;100158.34;4966051;28;20789;-80
2023/06/21 07:08:27;;;;;;;9.38;7.95;;;;;;;15.55;100.00;100168.09;4952816;28;20046;-80
2023/06/21 07:10:53;;;;;;;8.32;7.35;;;;;;;15.61;100.00;100167.34;4962710;28;20492;-80
2023/06/21 07:13:21;;;;;;;9.18;8.13;;;;;;;15.69;100.00;100172.59;4961806;28;20035;-80
2023/06/21 07:15:47;;;;;;;8.48;7.20;;;;;;;15.78;100.00;100173.31;4954263;28;20034;-80
2023/06/21 07:18:13;;;;;;;8.07;7.10;;;;;;;15.84;100.00;100179.75;4944941;28;21317;-80
2023/06/21 07:20:39;;;;;;;9.50;7.53;;;;;;;15.92;100.00;100178.81;4938535;28;20074;-80
2023/06/21 07:23:05;;;;;;;10.00;7.50;;;;;;;16.04;100.00;100182.66;4957319;28;20027;-86
2023/06/21 07:25:31;;;;;;;9.65;7.53;;;;;;;16.17;100.00;100184.66;4956918;28;20062;-88
2023/06/21 07:27:57;;;;;;;15.20;7.75;;;;;;;16.29;100.00;100197.50;4983259;28;20030;-87
2023/06/21 07:30:23;;;;;;;9.07;8.05;;;;;;;16.32;100.00;100200.66;4969122;28;20504;-88
2023/06/21 07:32:50;;;;;;;8.77;7.28;;;;;;;16.40;100.00;100196.19;4960708;28;20086;-80
2023/06/21 07:35:16;;;;;;;11.10;6.05;;;;;;;16.47;100.00;100200.56;4967184;28;20058;-80
2023/06/21 07:37:43;;;;;;;8.48;6.28;;;;;;;16.54;100.00;100200.66;4954122;28;20054;-81
2023/06/21 07:40:10;;;;;;;7.93;6.45;;;;;;;16.59;100.00;100205.41;4950921;28;20034;-81
2023/06/21 07:42:37;;;;;;;8.90;7.65;;;;;;;16.67;100.00;100209.81;4960949;28;20133;-79
2023/06/21 07:45:04;;;;;;;15.35;7.65;;;;;;;16.76;100.00;100224.66;4985728;28;20027;-79
2023/06/21 07:47:30;;;;;;;10.65;7.70;;;;;;;16.81;100.00;100224.09;4942795;28;20039;-79
2023/06/21 07:49:56;;;;;;;9.95;7.30;;;;;;;16.80;100.00;100222.44;4945947;28;20050;-79
2023/06/21 07:52:21;;;;;;;10.73;8.02;;;;;;;16.80;100.00;100217.09;4958411;28;20062;-84
2023/06/21 07:54:50;;;;;;;12.15;7.25;;;;;;;16.88;100.00;100221.50;4954742;28;20141;-84
2023/06/21 07:57:17;;;;;;;9.55;7.15;;;;;;;16.97;100.00;100225.66;4950686;28;20041;-80
2023/06/21 07:59:45;;;;;;;9.65;7.07;;;;;;;16.97;100.00;100218.50;4974075;28;20041;-79
2023/06/21 08:02:13;;;;;;;9.32;6.75;;;;;;;16.95;100.00;100219.69;4986204;28;20100;-79
2023/06/21 08:04:42;;;;;;;9.60;5.72;;;;;;;17.01;100.00;100215.44;4951117;28;20444;-79
2023/06/21 08:07:07;;;;;;;7.03;6.25;;;;;;;17.02;100.00;100217.91;4966404;28;20117;-80
2023/06/21 08:09:34;;;;;;;10.80;6.78;;;;;;;17.11;100.00;100224.81;4974530;28;20106;-80
2023/06/21 08:12:00;;;;;;;7.88;6.38;;;;;;;17.21;100.00;100224.47;4929480;28;20080;-82
2023/06/21 08:14:27;;;;;;;7.95;6.20;;;;;;;17.39;100.00;100227.66;4980834;28;20039;-83
2023/06/21 08:16:52;;;;;;;8.52;5.65;;;;;;;17.52;100.00;100227.75;4975488;28;20385;-81
2023/06/21 08:19:18;;;;;;;10.35;6.88;;;;;;;17.61;100.00;100223.09;4955088;28;20045;-79
2023/06/21 08:21:44;;;;;;;7.95;5.65;;;;;;;17.74;100.00;100230.38;4951984;28;20089;-82
2023/06/21 08:24:10;;;;;;;8.75;5.63;;;;;;;17.83;100.00;100228.34;4953050;28;20515;-80
2023/06/21 08:26:36;;;;;;;7.18;5.15;;;;;;;17.94;100.00;100229.63;4969825;28;20035;-80
2023/06/21 08:29:02;;;;;;;8.32;6.00;;;;;;;18.02;100.00;100229.47;4972927;28;20030;-80
2023/06/21 08:31:28;;;;;;;6.85;5.68;;;;;;;18.09;100.00;100227.63;4955669;28;20041;-80
2023/06/21 08:33:54;;;;;;;10.00;5.63;;;;;;;18.20;100.00;100220.91;4937002;28;20046;-80
2023/06/21 08:36:20;;;;;;;9.45;5.63;;;;;;;18.20;100.00;100236.94;4937889;28;20480;-80
2023/06/21 08:38:45;;;;;;;9.35;5.35;;;;;;;18.34;100.00;100226.31;4962268;28;20038;-80
2023/06/21 08:41:12;;;;;;;5.28;4.68;;;;;;;18.56;100.00;100223.47;4966138;28;20088;-81
2023/06/21 08:43:38;;;;;;;7.80;4.93;;;;;;;18.70;100.00;100224.31;4953818;28;20034;-80
2023/06/21 08:46:08;;;;;;;7.07;5.00;;;;;;;18.82;100.00;100227.22;4973144;28;20088;-79
2023/06/21 08:48:36;;;;;;;6.97;5.25;;;;;;;18.79;100.00;100233.00;4956381;28;20038;-83
2023/06/21 08:51:05;;;;;;;10.00;5.25;;;;;;;18.80;100.00;100221.25;4961296;28;20042;-82
2023/06/21 08:53:45;;;;;;;6.18;4.72;;;;;;;18.86;100.00;100225.78;4947400;28;20121;-81
2023/06/21 08:56:17;;;;;;;5.93;4.22;;;;;;;18.85;100.00;100226.81;4959253;28;20134;-80
2023/06/21 08:58:49;;;;;;;10.30;5.07;;;;;;;18.84;100.00;100231.34;4947318;28;20516;-82
2023/06/21 09:01:19;;;;;;;5.53;4.22;;;;;;;18.83;100.00;100237.72;4950264;28;20472;-82
2023/06/21 09:03:58;;;;;;;6.15;3.65;;;;;;;18.89;100.00;100238.75;4948436;28;20059;-82
2023/06/21 09:06:26;;;;;;;6.25;4.65;;;;;;;18.92;100.00;100240.22;4935510;28;20419;-82
2023/06/21 09:08:53;;;;;;;4.93;4.03;;;;;;;18.91;100.00;100231.34;4948863;28;20058;-82
2023/06/21 09:11:21;;;;;;;4.35;3.90;;;;;;;19.01;100.00;100238.16;4962307;28;20039;-82
2023/06/21 09:13:48;;;;;;;6.65;4.40;;;;;;;18.95;100.00;100240.59;4959207;28;20172;-81
2023/06/21 09:16:14;;;;;;;6.97;4.45;;;;;;;18.91;100.00;100246.56;4970393;28;20536;-81
2023/06/21 09:18:41;;;;;;;5.38;3.95;;;;;;;18.91;100.00;100235.88;4968335;28;20079;-81
2023/06/21 09:21:10;;;;;;;13.90;3.72;;;;;;;18.89;100.00;100243.31;4952914;28;20161;-81
2023/06/21 09:23:39;;;;;;;6.35;3.83;;;;;;;18.80;100.00;100245.34;4946474;28;20053;-81
2023/06/21 09:26:09;;;;;;;6.32;3.80;;;;;;;18.84;100.00;100246.59;4961699;28;20035;-81
2023/06/21 09:28:36;;;;;;;4.88;4.30;;;;;;;18.88;100.00;100247.81;4964913;28;20483;-84
2023/06/21 09:31:01;;;;;;;8.23;4.25;;;;;;;18.95;100.00;100251.31;4952131;28;20084;-86
2023/06/21 09:33:27;;;;;;;8.63;4.20;;;;;;;18.85;100.00;100253.59;4969701;28;20043;-80
2023/06/21 09:35:53;;;;;;;5.13;4.13;;;;;;;18.78;100.00;100255.41;4949880;28;20039;-80
2023/06/21 09:38:21;;;;;;;6.45;4.40;;;;;;;18.75;100.00;100250.47;4945836;28;20050;-84
2023/06/21 09:40:47;;;;;;;10.30;4.60;;;;;;;18.77;100.00;100253.78;4935966;28;20496;-82
2023/06/21 09:43:13;;;;;;;6.53;4.10;;;;;;;18.91;100.00;100251.94;4967728;28;20043;-79
2023/06/21 09:45:39;;;;;;;8.23;4.43;;;;;;;19.04;100.00;100257.31;4946103;28;20031;-80
2023/06/21 09:48:04;;;;;;;10.02;4.60;;;;;;;19.15;100.00;100252.38;4957867;28;20153;-79
2023/06/21 09:50:41;;;;;;;9.13;4.70;;;;;;;19.33;100.00;100249.91;4947888;28;20147;-79
2023/06/21 09:53:11;;;;;;;6.55;4.25;;;;;;;19.55;100.00;100248.84;4969230;28;20047;-77
2023/06/21 09:55:43;;;;;;;9.40;3.85;;;;;;;19.74;100.00;100254.38;4939222;28;20098;-81
2023/06/21 09:58:09;;;;;;;4.72;3.65;;;;;;;19.71;100.00;100255.63;4938332;28;20158;-79
2023/06/21 10:00:35;;;;;;;4.20;3.67;;;;;;;19.66;100.00;100252.75;4927755;28;20035;-80
2023/06/21 10:03:03;;;;;;;5.45;3.58;;;;;;;19.71;100.00;100256.47;4930082;28;20141;-78
2023/06/21 10:05:29;;;;;;;4.55;3.42;;;;;;;19.84;100.00;100252.91;4932435;28;20313;-80
2023/06/21 10:07:56;;;;;;;6.30;3.20;;;;;;;20.01;100.00;100252.44;4939038;28;20031;-79
2023/06/21 10:10:22;;;;;;;4.80;3.72;;;;;;;20.15;100.00;100258.59;4957243;28;20031;-81
2023/06/21 10:12:50;;;;;;;4.28;3.20;;;;;;;20.28;100.00;100263.09;4942270;28;20106;-81
2023/06/21 10:15:18;;;;;;;3.88;2.67;;;;;;;20.39;100.00;100252.72;4944340;28;20513;-82
2023/06/21 10:17:46;;;;;;;3.72;3.05;;;;;;;20.51;100.00;100258.25;4957661;28;20122;-81
2023/06/21 10:20:14;;;;;;;5.43;2.70;;;;;;;20.55;100.00;100257.59;4937398;28;20524;-82
2023/06/21 10:22:43;;;;;;;3.85;3.03;;;;;;;20.61;100.00;100258.56;4949317;28;20174;-87
2023/06/21 10:25:10;;;;;;;3.75;2.63;;;;;;;20.66;100.00;100266.81;4953898;28;20030;-88
2023/06/21 10:27:37;;;;;;;6.57;3.20;;;;;;;20.75;100.00;100261.19;4953521;28;20035;-80
2023/06/21 10:30:04;;;;;;;5.90;3.47;;;;;;;20.80;100.00;100259.50;4961398;28;20031;-80
2023/06/21 10:32:34;;;;;;;4.57;3.53;;;;;;;20.87;100.00;100267.50;4949960;28;20165;-81
2023/06/21 10:35:12;;;;;;;4.10;2.15;;;;;;;20.94;100.00;100267.50;4948787;28;20070;-80
2023/06/21 10:38:01;;;;;;;3.35;2.38;;;;;;;21.02;100.00;100263.72;4954048;28;20027;-79
2023/06/21 10:40:28;;;;;;;6.47;2.53;;;;;;;21.17;100.00;100260.69;4912665;28;20382;-80
2023/06/21 10:42:56;;;;;;;6.22;2.78;;;;;;;21.19;100.00;100267.50;4965790;28;20078;-87
2023/06/21 10:45:22;;;;;;;6.65;2.80;;;;;;;21.24;100.00;100264.16;4965628;28;20766;-86
2023/06/21 10:47:48;;;;;;;4.15;2.42;;;;;;;21.27;100.00;100274.47;4959658;28;20412;-78
2023/06/21 10:50:14;;;;;;;5.05;2.95;;;;;;;21.29;100.00;100272.38;4941212;28;20038;-81
2023/06/21 10:52:41;;;;;;;4.93;2.88;;;;;;;21.22;100.00;100273.47;4916643;28;20038;-80
2023/06/21 10:55:07;;;;;;;6.18;2.97;;;;;;;21.22;100.00;100278.84;4937274;28;20473;-80
2023/06/21 10:57:34;;;;;;;4.20;2.50;;;;;;;21.13;100.00;100278.31;4953229;28;20201;-80
2023/06/21 11:00:04;;;;;;;5.75;2.67;;;;;;;21.04;100.00;100272.38;4959558;28;20108;-81
2023/06/21 11:02:33;;;;;;;3.60;2.90;;;;;;;21.00;100.00;100271.16;4948824;28;20095;-80
2023/06/21 11:05:20;;;;;;;5.95;3.17;;;;;;;21.12;100.00;100269.41;4935270;28;20408;-82
2023/06/21 11:07:50;;;;;;;6.57;2.65;;;;;;;21.26;100.00;100270.13;4950137;28;20039;-84
2023/06/21 11:10:20;;;;;;;11.40;2.97;;;;;;;21.36;100.00;100269.63;4945144;28;20477;-84
2023/06/21 11:12:45;;;;;;;3.20;2.72;;;;;;;21.56;100.00;100274.00;4960597;28;20035;-81
2023/06/21 11:15:20;;;;;;;3.50;2.67;;;;;;;21.75;100.00;100274.84;4929278;28;20050;-78
2023/06/21 11:18:01;;;;;;;5.07;2.73;;;;;;;21.71;100.00;100276.31;4954577;28;20374;-81
2023/06/21 11:20:28;;;;;;;5.15;2.80;;;;;;;21.46;100.00;100274.50;4958491;28;20408;-81